Time;durP1;ratioP1;P1;durP2;ratioP2;P2;SDS_P1;SDS_P2;PMS_P1;PMS_P2;Temp;Humidity;BMP_temperature;BMP_pressure;BME280_temperature;BME280_humidity;BME280_pressure;Samples;Min_cycle;Max_cycle;Signal;HPM_P1;HPM_P2
2023/08/09 05:23:42;;;;;;;2.30;2.10;;;14.40;99.90;;;;;;1391729;26;20253;-44
2023/08/09 05:26:09;;;;;;;2.60;2.07;;;14.30;99.90;;;;;;5054986;28;20274;-43
2023/08/09 05:28:34;;;;;;;3.70;2.20;;;14.40;99.90;;;;;;5069835;28;20188;-44
2023/08/09 05:31:01;;;;;;;2.23;1.97;;;14.40;99.90;;;;;;5069510;28;20717;-44
2023/08/09 05:33:28;;;;;;;3.67;2.00;;;14.40;99.90;;;;;;5069447;28;20272;-43
2023/08/09 05:35:55;;;;;;;2.40;2.10;;;14.40;99.90;;;;;;5069404;28;20295;-44
2023/08/09 05:38:23;;;;;;;2.50;1.97;;;14.50;99.90;;;;;;5052971;28;20602;-43
2023/08/09 05:40:49;;;;;;;4.40;2.27;;;14.50;99.90;;;;;;5053316;28;20192;-46
2023/08/09 05:43:17;;;;;;;3.17;2.27;;;14.60;99.90;;;;;;5053831;28;20664;-47
2023/08/09 05:45:45;;;;;;;2.83;2.23;;;14.60;99.90;;;;;;5054376;28;20188;-45
2023/08/09 05:48:11;;;;;;;3.07;2.70;;;14.70;99.90;;;;;;5054224;28;20202;-44
2023/08/09 05:50:38;;;;;;;5.83;2.40;;;14.80;99.90;;;;;;5069707;28;20212;-44
2023/08/09 05:53:05;;;;;;;3.77;2.40;;;14.80;99.90;;;;;;5069968;28;20283;-43
2023/08/09 05:55:31;;;;;;;2.70;2.37;;;14.90;99.90;;;;;;5069348;28;20192;-43
2023/08/09 05:57:58;;;;;;;8.53;2.90;;;14.90;99.90;;;;;;5052426;28;20279;-45
2023/08/09 06:00:24;;;;;;;4.87;2.03;;;15.00;99.90;;;;;;5070568;28;20203;-49
2023/08/09 06:02:50;;;;;;;2.77;2.10;;;15.10;99.90;;;;;;5055071;28;20184;-45
2023/08/09 06:05:20;;;;;;;2.80;2.20;;;15.10;99.90;;;;;;5053780;28;20544;-43
2023/08/09 06:07:46;;;;;;;3.77;2.47;;;15.20;99.90;;;;;;5068820;28;20726;-44
2023/08/09 06:10:12;;;;;;;3.13;2.50;;;15.30;99.90;;;;;;5068762;28;20216;-43
2023/08/09 06:12:38;;;;;;;2.77;1.97;;;15.30;99.90;;;;;;5068732;28;20215;-42
2023/08/09 06:15:05;;;;;;;2.40;2.20;;;15.40;99.90;;;;;;5053713;28;20259;-44
2023/08/09 06:17:31;;;;;;;3.57;2.40;;;15.40;99.90;;;;;;5052230;28;20200;-44
2023/08/09 06:19:58;;;;;;;2.47;2.20;;;15.40;99.90;;;;;;5068787;28;20195;-45
2023/08/09 06:22:24;;;;;;;4.07;2.63;;;15.50;99.90;;;;;;5052154;28;20182;-43
2023/08/09 06:24:50;;;;;;;2.80;2.50;;;15.50;99.90;;;;;;5068653;28;20204;-42
2023/08/09 06:27:16;;;;;;;4.73;2.20;;;15.60;99.90;;;;;;5053224;28;20200;-43
2023/08/09 06:29:42;;;;;;;2.50;2.20;;;15.70;99.90;;;;;;5070622;28;20231;-43
2023/08/09 06:32:07;;;;;;;4.67;2.40;;;15.70;99.90;;;;;;5072734;28;20335;-44
2023/08/09 06:34:33;;;;;;;3.97;2.40;;;15.70;99.90;;;;;;5072847;28;20179;-43
2023/08/09 06:36:59;;;;;;;7.23;2.43;;;15.80;99.90;;;;;;5057292;28;20615;-42
2023/08/09 06:39:25;;;;;;;3.40;2.33;;;15.90;99.90;;;;;;5057612;28;20188;-42
2023/08/09 06:41:52;;;;;;;3.73;2.23;;;16.10;99.90;;;;;;5057423;28;20234;-45
2023/08/09 06:44:18;;;;;;;2.50;2.27;;;16.40;99.90;;;;;;5057542;28;20185;-45
2023/08/09 06:46:45;;;;;;;2.80;2.33;;;16.60;99.90;;;;;;5057352;28;20212;-44
2023/08/09 06:49:12;;;;;;;2.17;1.97;;;16.90;99.90;;;;;;5072666;28;20192;-44
2023/08/09 06:51:38;;;;;;;3.77;2.20;;;17.00;99.90;;;;;;5072691;28;20187;-43
2023/08/09 06:54:05;;;;;;;3.67;2.27;;;17.30;99.90;;;;;;5072560;28;20682;-45
2023/08/09 06:56:31;;;;;;;5.10;2.10;;;17.50;99.90;;;;;;5072417;28;20200;-43
2023/08/09 06:58:57;;;;;;;1.77;1.50;;;17.70;99.90;;;;;;5057326;28;20614;-43
2023/08/09 07:01:23;;;;;;;2.43;1.63;;;17.90;99.90;;;;;;5057311;28;20365;-45
2023/08/09 07:03:50;;;;;;;3.20;1.50;;;18.00;99.90;;;;;;5055870;28;20219;-43
2023/08/09 07:06:16;;;;;;;2.80;1.53;;;18.10;99.90;;;;;;5057078;28;20226;-44
2023/08/09 07:08:41;;;;;;;1.90;1.47;;;18.00;99.90;;;;;;5056863;28;20184;-42
2023/08/09 07:11:07;;;;;;;5.40;1.70;;;18.10;99.90;;;;;;5055428;28;20652;-44
2023/08/09 07:13:33;;;;;;;3.47;1.40;;;18.10;99.90;;;;;;5072133;28;20188;-44
2023/08/09 07:15:59;;;;;;;4.70;1.20;;;18.10;99.90;;;;;;5056908;28;20663;-43
2023/08/09 07:18:25;;;;;;;11.47;1.20;;;18.10;99.90;;;;;;5072014;28;20618;-43
2023/08/09 07:20:51;;;;;;;2.70;1.50;;;18.10;99.90;;;;;;5056607;28;20573;-46
2023/08/09 07:23:17;;;;;;;1.67;1.20;;;18.00;99.90;;;;;;5071815;28;20203;-44
2023/08/09 07:25:42;;;;;;;1.43;1.33;;;18.00;99.90;;;;;;5056833;28;20699;-45
2023/08/09 07:28:08;;;;;;;5.70;1.80;;;18.00;99.90;;;;;;5055358;28;20711;-43
2023/08/09 07:30:34;;;;;;;2.47;1.70;;;18.00;99.90;;;;;;5056366;28;20196;-44
2023/08/09 07:33:00;;;;;;;2.57;1.43;;;18.00;99.90;;;;;;5055286;28;20276;-41
2023/08/09 07:35:25;;;;;;;2.13;1.10;;;17.90;99.90;;;;;;5071803;28;20196;-45
2023/08/09 07:37:51;;;;;;;3.83;1.90;;;17.90;99.90;;;;;;5071624;28;20623;-43
2023/08/09 07:40:17;;;;;;;3.93;1.53;;;17.90;99.90;;;;;;5056329;28;20576;-44
2023/08/09 07:42:43;;;;;;;2.50;1.20;;;18.00;99.90;;;;;;5056182;28;20182;-44
2023/08/09 07:45:10;;;;;;;3.20;1.30;;;18.00;99.90;;;;;;5071593;28;20184;-43
2023/08/09 07:47:36;;;;;;;2.47;1.40;;;18.20;99.90;;;;;;5071548;28;20200;-43
2023/08/09 07:50:01;;;;;;;2.33;1.10;;;18.40;99.90;;;;;;5056235;28;20612;-44
2023/08/09 07:52:29;;;;;;;1.53;1.33;;;18.60;99.90;;;;;;5071287;28;20188;-46
2023/08/09 07:54:56;;;;;;;2.40;1.30;;;18.70;99.90;;;;;;5055911;28;20224;-44
2023/08/09 07:57:21;;;;;;;2.90;1.30;;;18.80;99.90;;;;;;5055962;28;20200;-48
2023/08/09 07:59:47;;;;;;;3.87;1.37;;;19.00;99.90;;;;;;5071382;28;20271;-46
2023/08/09 08:02:13;;;;;;;2.63;1.30;;;19.00;99.90;;;;;;5055811;28;20191;-46
2023/08/09 08:04:39;;;;;;;1.90;1.10;;;18.90;99.90;;;;;;5071120;28;20196;-47
2023/08/09 08:07:04;;;;;;;3.13;1.20;;;19.00;99.90;;;;;;5055861;28;20208;-44
2023/08/09 08:09:32;;;;;;;3.30;1.20;;;19.10;99.90;;;;;;5054355;28;20208;-44
2023/08/09 08:11:59;;;;;;;1.73;1.30;;;19.50;99.90;;;;;;5071143;28;20531;-46
2023/08/09 08:14:25;;;;;;;1.37;1.20;;;19.80;99.90;;;;;;5056004;28;20189;-44
2023/08/09 08:16:50;;;;;;;1.50;0.97;;;20.10;99.90;;;;;;5070957;28;20703;-46
2023/08/09 08:19:16;;;;;;;4.03;1.40;;;20.20;99.90;;;;;;5055575;28;20179;-44
2023/08/09 08:21:42;;;;;;;5.17;1.10;;;20.30;99.90;;;;;;5055651;28;20272;-45
2023/08/09 08:24:08;;;;;;;1.37;1.20;;;20.40;99.90;;;;;;5055439;28;20192;-43
2023/08/09 08:26:36;;;;;;;2.53;1.17;;;20.40;99.90;;;;;;5055583;28;20208;-46
2023/08/09 08:29:02;;;;;;;1.73;1.10;;;20.40;99.90;;;;;;5055594;28;20187;-45
2023/08/09 08:31:27;;;;;;;3.07;0.90;;;20.40;99.90;;;;;;5037370;28;20575;-45
2023/08/09 08:33:54;;;;;;;5.37;1.30;;;20.50;99.90;;;;;;5055518;28;20192;-45
2023/08/09 08:36:20;;;;;;;3.93;1.30;;;20.70;99.90;;;;;;5055278;28;20196;-46
2023/08/09 08:38:46;;;;;;;1.67;1.20;;;20.80;99.90;;;;;;5055768;28;20518;-45
2023/08/09 08:41:11;;;;;;;5.23;1.20;;;20.70;99.90;;;;;;5054427;28;20187;-46
2023/08/09 08:43:38;;;;;;;2.80;1.03;;;20.70;99.90;;;;;;5055233;28;20184;-46
2023/08/09 08:46:04;;;;;;;5.43;1.27;;;20.80;99.90;;;;;;5070323;28;20223;-47
2023/08/09 08:48:34;;;;;;;2.00;1.00;;;20.90;99.90;;;;;;5055141;28;20188;-45
2023/08/09 08:51:04;;;;;;;1.93;1.13;;;20.90;99.90;;;;;;5054915;28;20203;-45
2023/08/09 08:53:30;;;;;;;2.50;0.90;;;21.10;99.90;;;;;;5054266;28;20647;-46
2023/08/09 08:55:57;;;;;;;1.10;1.00;;;21.20;99.90;;;;;;5054780;28;20220;-45
2023/08/09 08:58:23;;;;;;;2.57;1.07;;;21.30;99.90;;;;;;5070258;28;20207;-44
2023/08/09 09:00:48;;;;;;;5.80;1.10;;;21.30;99.90;;;;;;5055030;28;20676;-46
2023/08/09 09:03:14;;;;;;;3.67;1.07;;;21.40;99.90;;;;;;5054686;28;20215;-45
2023/08/09 09:05:40;;;;;;;2.73;0.87;;;21.50;99.90;;;;;;5054730;28;20234;-45
2023/08/09 09:08:06;;;;;;;4.70;1.10;;;21.60;99.90;;;;;;5054832;28;20667;-44
2023/08/09 09:10:31;;;;;;;3.97;1.10;;;21.90;99.90;;;;;;5054644;28;20204;-46
2023/08/09 09:12:57;;;;;;;1.87;1.00;;;22.10;99.90;;;;;;5055051;28;20193;-47
2023/08/09 09:15:23;;;;;;;2.93;1.00;;;22.20;99.90;;;;;;5054453;28;20704;-46
2023/08/09 09:17:49;;;;;;;2.63;0.80;;;22.20;99.90;;;;;;5054455;28;20200;-46
2023/08/09 09:20:21;;;;;;;2.67;0.93;;;22.20;99.90;;;;;;5054366;28;20208;-46
2023/08/09 09:22:48;;;;;;;2.70;1.13;;;22.30;99.90;;;;;;5069637;28;20188;-46
2023/08/09 09:25:15;;;;;;;4.13;1.00;;;22.40;99.90;;;;;;5054572;28;20267;-46
2023/08/09 09:27:41;;;;;;;3.83;1.20;;;22.40;99.90;;;;;;5054155;28;20798;-45
2023/08/09 09:30:14;;;;;;;1.13;0.90;;;22.20;99.90;;;;;;5054368;28;20231;-45
2023/08/09 09:32:56;;;;;;;2.33;1.00;;;22.00;99.90;;;;;;5054438;28;20221;-46
2023/08/09 09:35:26;;;;;;;2.23;1.10;;;22.10;99.90;;;;;;5069969;28;20225;-45
2023/08/09 09:37:53;;;;;;;0.83;0.80;;;22.20;99.90;;;;;;5054564;28;20173;-46
2023/08/09 09:40:31;;;;;;;0.90;0.80;;;22.30;99.90;;;;;;5053985;28;20172;-46
2023/08/09 09:42:58;;;;;;;2.47;0.70;;;22.50;99.90;;;;;;5069279;28;20643;-47
2023/08/09 09:45:27;;;;;;;1.17;0.80;;;22.70;99.90;;;;;;5053956;28;20187;-45
2023/08/09 09:47:54;;;;;;;1.70;0.90;;;22.90;99.90;;;;;;5054216;28;20220;-47
2023/08/09 09:50:27;;;;;;;1.17;0.80;;;23.10;99.90;;;;;;5052581;28;20684;-45
2023/08/09 09:52:54;;;;;;;1.97;0.87;;;23.30;99.90;;;;;;5053939;28;20180;-46
2023/08/09 09:55:25;;;;;;;1.20;0.80;;;23.40;99.90;;;;;;5053750;28;20670;-47
2023/08/09 09:57:52;;;;;;;1.10;0.80;;;23.50;99.90;;;;;;5069299;28;20230;-47
2023/08/09 10:00:20;;;;;;;2.70;1.10;;;23.80;99.90;;;;;;5053720;28;20671;-47
2023/08/09 10:26:52;;;;;;;3.53;1.37;;;22.60;99.90;;;;;;5054033;28;20222;-48
2023/08/09 10:29:21;;;;;;;1.60;1.00;;;22.90;99.90;;;;;;5068689;28;20283;-48
2023/08/09 10:31:59;;;;;;;1.43;0.90;;;23.20;99.90;;;;;;5068764;28;20180;-47
2023/08/09 10:34:42;;;;;;;2.43;0.90;;;23.50;99.90;;;;;;5053581;28;20172;-47
2023/08/09 10:37:10;;;;;;;3.13;1.10;;;23.80;99.90;;;;;;5068701;28;20207;-48
2023/08/09 10:39:37;;;;;;;1.00;0.77;;;23.80;99.90;;;;;;5068710;28;20564;-47
2023/08/09 10:42:14;;;;;;;3.73;1.00;;;23.60;99.90;;;;;;5052243;28;20180;-48
2023/08/09 10:44:49;;;;;;;1.53;0.90;;;23.50;99.90;;;;;;5068582;28;20183;-46
2023/08/09 10:47:20;;;;;;;1.27;0.80;;;23.30;99.90;;;;;;5053283;28;20221;-47
2023/08/09 10:49:48;;;;;;;4.23;0.80;;;23.50;99.90;;;;;;5068554;28;20239;-47
2023/08/09 10:52:15;;;;;;;1.73;0.80;;;23.80;99.90;;;;;;5068630;28;20190;-47
2023/08/09 10:54:41;;;;;;;4.30;1.00;;;24.00;99.90;;;;;;5053212;28;20184;-48
2023/08/09 10:57:09;;;;;;;1.00;0.70;;;24.30;99.90;;;;;;5053214;28;20206;-46
2023/08/09 10:59:37;;;;;;;1.10;1.00;;;24.40;99.90;;;;;;5069079;28;20675;-46
2023/08/09 11:02:04;;;;;;;1.67;1.00;;;24.40;99.90;;;;;;5051727;28;20667;-47
2023/08/09 11:04:30;;;;;;;2.83;1.20;;;24.40;99.90;;;;;;5068399;28;20184;-48
2023/08/09 11:06:56;;;;;;;2.87;0.90;;;24.50;99.90;;;;;;5068324;28;20534;-47
2023/08/09 11:09:23;;;;;;;3.43;1.00;;;24.50;99.90;;;;;;5052913;28;20184;-48
2023/08/09 11:11:51;;;;;;;1.57;1.00;;;24.60;99.90;;;;;;5053012;28;20172;-47
2023/08/09 11:14:19;;;;;;;3.85;0.80;;;24.70;99.90;;;;;;5052959;28;20177;-46
2023/08/09 11:16:46;;;;;;;1.23;0.80;;;24.80;99.90;;;;;;5056210;28;20232;-47
2023/08/09 11:19:18;;;;;;;5.28;1.38;;;25.00;99.90;;;;;;5056622;28;20180;-47
2023/08/09 11:21:49;;;;;;;1.23;1.00;;;25.10;99.90;;;;;;5071758;28;20192;-48
2023/08/09 11:24:21;;;;;;;2.88;1.10;;;25.20;99.90;;;;;;5038802;28;20296;-47
2023/08/09 11:26:56;;;;;;;2.45;1.45;;;25.20;99.90;;;;;;5056618;28;20568;-48
2023/08/09 11:29:25;;;;;;;1.50;0.80;;;25.30;99.90;;;;;;5056298;28;20195;-47
2023/08/09 11:31:53;;;;;;;1.58;0.90;;;25.20;99.90;;;;;;5071819;28;20188;-48
2023/08/09 11:34:21;;;;;;;3.03;1.00;;;25.20;99.90;;;;;;5054947;28;20184;-48
2023/08/09 11:36:49;;;;;;;1.17;0.85;;;25.30;99.90;;;;;;5056466;28;20210;-48
2023/08/09 11:39:15;;;;;;;0.88;0.88;;;25.20;99.90;;;;;;5056263;28;20185;-47
2023/08/09 11:41:48;;;;;;;1.15;0.98;;;25.10;99.90;;;;;;5071634;28;20672;-48
2023/08/09 11:44:15;;;;;;;1.70;0.75;;;25.20;99.90;;;;;;5056419;28;20250;-49
2023/08/09 11:46:45;;;;;;;1.15;1.00;;;25.20;99.90;;;;;;5055166;28;20212;-47
2023/08/09 11:49:11;;;;;;;2.30;1.33;;;25.30;99.90;;;;;;5054996;28;20786;-48
2023/08/09 11:51:37;;;;;;;1.42;0.93;;;25.40;99.90;;;;;;5055911;28;20292;-46
2023/08/09 11:54:07;;;;;;;1.27;1.00;;;25.40;99.90;;;;;;5071370;28;20199;-47
2023/08/09 11:56:36;;;;;;;1.42;0.90;;;25.50;99.90;;;;;;5071375;28;20290;-47
2023/08/09 11:59:03;;;;;;;2.17;1.00;;;25.70;99.90;;;;;;5056226;28;20263;-48
2023/08/09 12:01:35;;;;;;;1.33;0.77;;;25.70;99.90;;;;;;5055779;28;20203;-48
2023/08/09 12:04:09;;;;;;;2.63;1.20;;;25.80;99.90;;;;;;5056139;28;20168;-47
2023/08/09 12:06:48;;;;;;;1.85;1.13;;;25.80;99.90;;;;;;5071090;28;20219;-47
2023/08/09 12:09:36;;;;;;;2.25;0.90;;;25.90;99.90;;;;;;5071251;28;20210;-47
2023/08/09 12:12:09;;;;;;;2.67;1.20;;;26.10;99.90;;;;;;5042084;28;20196;-48
2023/08/09 12:14:40;;;;;;;2.83;1.23;;;26.10;99.90;;;;;;5071261;28;20180;-49
2023/08/09 12:17:07;;;;;;;1.98;1.10;;;25.90;99.90;;;;;;5055557;28;20302;-49
2023/08/09 12:19:34;;;;;;;1.40;1.15;;;25.80;99.90;;;;;;5055951;28;20569;-47
2023/08/09 12:22:01;;;;;;;1.95;1.25;;;25.40;99.90;;;;;;5055738;28;20256;-47
2023/08/09 12:24:27;;;;;;;3.63;1.15;;;24.90;99.90;;;;;;5054215;28;20655;-49
2023/08/09 12:26:54;;;;;;;1.65;0.90;;;24.70;99.90;;;;;;5054150;28;20212;-48
2023/08/09 12:29:19;;;;;;;3.22;1.05;;;24.50;99.90;;;;;;5055354;28;20692;-48
2023/08/09 12:31:45;;;;;;;1.83;1.20;;;24.20;99.90;;;;;;5055301;28;20192;-47
2023/08/09 12:34:11;;;;;;;4.13;1.10;;;23.90;99.90;;;;;;5070569;28;20235;-47
2023/08/09 12:36:39;;;;;;;1.30;1.05;;;23.80;99.90;;;;;;5070636;28;20201;-47
2023/08/09 12:39:10;;;;;;;2.58;1.10;;;23.80;99.90;;;;;;5055693;28;20185;-47
2023/08/09 12:41:37;;;;;;;1.98;1.30;;;23.90;99.90;;;;;;5055113;28;20674;-47
2023/08/09 12:44:03;;;;;;;3.15;1.30;;;24.20;99.90;;;;;;5055324;28;20196;-47
2023/08/09 12:46:29;;;;;;;3.90;1.33;;;24.40;99.90;;;;;;5070493;28;20212;-48
2023/08/09 12:48:56;;;;;;;4.93;1.52;;;24.40;99.90;;;;;;5070196;28;20212;-48
2023/08/09 12:51:22;;;;;;;2.08;1.30;;;24.40;99.90;;;;;;5054951;28;20220;-48
2023/08/09 12:53:48;;;;;;;2.28;1.20;;;24.50;99.90;;;;;;5054998;28;20189;-48
2023/08/09 12:56:14;;;;;;;3.58;1.48;;;24.70;99.90;;;;;;5070214;28;20684;-48
2023/08/09 12:58:40;;;;;;;2.38;1.50;;;24.80;99.90;;;;;;5054811;28;20235;-48
2023/08/09 13:01:07;;;;;;;2.35;1.60;;;24.90;99.90;;;;;;5053596;28;20188;-48
2023/08/09 13:03:33;;;;;;;3.75;1.50;;;25.10;99.90;;;;;;5070192;28;20728;-49
2023/08/09 13:05:59;;;;;;;2.38;1.60;;;25.20;99.90;;;;;;5054859;28;20247;-48
2023/08/09 13:08:24;;;;;;;3.00;1.75;;;25.30;99.90;;;;;;5055662;28;20199;-48
2023/08/09 13:10:50;;;;;;;3.80;1.77;;;25.30;99.90;;;;;;5055924;28;20204;-48
2023/08/09 13:13:16;;;;;;;3.33;2.00;;;25.30;99.90;;;;;;5056127;28;20187;-47
2023/08/09 13:15:42;;;;;;;3.35;1.92;;;25.20;99.90;;;;;;5070839;28;20188;-46
2023/08/09 13:18:08;;;;;;;4.60;2.03;;;25.10;99.90;;;;;;5055844;28;20663;-50
2023/08/09 13:20:33;;;;;;;2.00;1.67;;;25.20;99.90;;;;;;5054296;28;20676;-51
2023/08/09 13:22:59;;;;;;;3.05;2.00;;;25.50;99.90;;;;;;5054103;28;20192;-52
2023/08/09 13:25:25;;;;;;;5.63;2.50;;;25.60;99.90;;;;;;5070317;28;20188;-49
2023/08/09 13:27:51;;;;;;;5.60;2.22;;;25.70;99.90;;;;;;5055981;28;20192;-52
2023/08/09 13:30:16;;;;;;;5.30;2.50;;;25.90;99.90;;;;;;5070824;28;20656;-47
2023/08/09 13:32:43;;;;;;;5.80;2.20;;;25.80;99.90;;;;;;5069417;28;20184;-48
2023/08/09 13:35:09;;;;;;;3.03;2.30;;;25.80;99.90;;;;;;5036254;28;20188;-49
2023/08/09 13:37:39;;;;;;;3.60;1.50;;;25.90;99.90;;;;;;5069390;28;20265;-48
2023/08/09 13:40:11;;;;;;;2.63;1.60;;;25.80;99.90;;;;;;5069610;28;20212;-48
2023/08/09 13:42:38;;;;;;;2.38;1.50;;;25.80;99.90;;;;;;5069448;28;20184;-47
2023/08/09 13:45:05;;;;;;;2.17;1.48;;;25.60;99.90;;;;;;5069347;28;20245;-47
2023/08/09 13:47:32;;;;;;;1.58;1.42;;;25.70;99.90;;;;;;5053888;28;20192;-47
2023/08/09 13:49:58;;;;;;;2.35;1.60;;;25.70;99.90;;;;;;5054300;28;20212;-50
2023/08/09 13:52:25;;;;;;;3.80;1.75;;;25.60;99.90;;;;;;5053867;28;20185;-46
2023/08/09 13:54:51;;;;;;;2.60;1.60;;;25.50;99.90;;;;;;5052493;28;20192;-47
2023/08/09 13:57:18;;;;;;;3.47;1.63;;;25.50;99.90;;;;;;5053895;28;20208;-47
2023/08/09 13:59:45;;;;;;;2.13;1.30;;;25.50;99.90;;;;;;5054299;28;20188;-48
2023/08/09 14:02:11;;;;;;;3.25;1.20;;;25.60;99.90;;;;;;5069157;28;20274;-47
2023/08/09 14:04:37;;;;;;;2.00;1.38;;;25.60;99.90;;;;;;5069096;28;20596;-47
2023/08/09 14:07:04;;;;;;;1.75;1.27;;;25.70;99.90;;;;;;5069262;28;20223;-46
2023/08/09 14:09:32;;;;;;;4.95;1.13;;;25.80;99.90;;;;;;5036213;28;20564;-46
2023/08/09 14:11:58;;;;;;;1.80;1.38;;;25.70;99.90;;;;;;5053874;28;20528;-46
2023/08/09 14:14:26;;;;;;;1.50;1.08;;;25.60;99.90;;;;;;5052293;28;20180;-47
2023/08/09 14:16:52;;;;;;;3.72;1.50;;;25.60;99.90;;;;;;5036522;28;20209;-46
2023/08/09 14:19:21;;;;;;;5.18;1.50;;;25.60;99.90;;;;;;5069278;28;20188;-46
2023/08/09 14:21:48;;;;;;;3.63;1.40;;;25.70;99.90;;;;;;5053538;28;20184;-47
2023/08/09 14:24:14;;;;;;;7.20;1.50;;;25.80;99.90;;;;;;5069005;28;20274;-47
2023/08/09 14:26:40;;;;;;;3.50;1.40;;;25.90;99.90;;;;;;5053396;28;20223;-48
2023/08/09 14:29:07;;;;;;;1.55;1.30;;;25.90;99.90;;;;;;5068656;28;20212;-47
2023/08/09 14:31:36;;;;;;;1.75;1.20;;;25.90;99.90;;;;;;5069273;28;20208;-51
2023/08/09 14:34:03;;;;;;;2.05;1.35;;;26.00;99.90;;;;;;5053264;28;20535;-52
2023/08/09 14:36:28;;;;;;;1.73;1.40;;;25.90;99.90;;;;;;5052040;28;20202;-52
2023/08/09 14:38:54;;;;;;;4.22;1.50;;;26.00;99.90;;;;;;5053657;28;20176;-53
2023/08/09 14:41:20;;;;;;;3.47;1.73;;;26.10;99.90;;;;;;5053204;28;20195;-52
2023/08/09 14:43:46;;;;;;;2.85;1.40;;;26.10;99.90;;;;;;5053208;28;20242;-54
2023/08/09 14:46:11;;;;;;;1.38;1.13;;;26.00;99.90;;;;;;5068462;28;20243;-52
2023/08/09 14:48:37;;;;;;;1.30;1.15;;;26.10;99.90;;;;;;5053605;28;20215;-52
2023/08/09 14:51:03;;;;;;;2.42;1.50;;;26.20;99.90;;;;;;5071134;28;20224;-52
2023/08/09 14:53:29;;;;;;;1.10;1.10;;;26.20;99.90;;;;;;5055908;28;20287;-53
2023/08/09 14:55:58;;;;;;;2.33;1.58;;;26.20;99.90;;;;;;5072462;28;20204;-52
2023/08/09 14:58:24;;;;;;;1.58;1.40;;;26.20;99.90;;;;;;5072749;28;20180;-52
2023/08/09 15:00:50;;;;;;;1.75;1.40;;;26.30;99.90;;;;;;5057351;28;20259;-53
2023/08/09 15:03:15;;;;;;;1.60;1.40;;;26.30;99.90;;;;;;5072441;28;20192;-53
2023/08/09 15:05:41;;;;;;;3.08;1.50;;;26.40;99.90;;;;;;5056800;28;20187;-53
2023/08/09 15:08:07;;;;;;;1.85;1.20;;;26.30;99.90;;;;;;5055875;28;20192;-52
2023/08/09 15:10:35;;;;;;;1.52;1.40;;;26.20;99.90;;;;;;5056798;28;20272;-53
2023/08/09 15:13:02;;;;;;;2.13;1.50;;;26.10;99.90;;;;;;5072122;28;20197;-53
2023/08/09 15:15:29;;;;;;;2.45;1.50;;;26.00;99.90;;;;;;5056634;28;20214;-51
2023/08/09 15:17:54;;;;;;;1.80;1.70;;;26.10;99.90;;;;;;5056901;28;20199;-52
2023/08/09 15:20:20;;;;;;;1.40;1.30;;;26.10;99.90;;;;;;5071942;28;20558;-53
2023/08/09 15:22:47;;;;;;;5.75;1.75;;;25.90;99.90;;;;;;5055327;28;20200;-54
2023/08/09 15:25:19;;;;;;;1.38;1.27;;;25.90;99.90;;;;;;5056461;28;20195;-52
2023/08/09 15:27:45;;;;;;;4.93;1.50;;;25.80;99.90;;;;;;5071579;28;20231;-52
2023/08/09 15:30:14;;;;;;;1.50;1.40;;;25.80;99.90;;;;;;5056980;28;20215;-52
2023/08/09 15:32:42;;;;;;;2.55;1.60;;;25.90;99.90;;;;;;5072102;28;20223;-52
2023/08/09 15:35:09;;;;;;;1.95;1.40;;;25.90;99.90;;;;;;5072060;28;20242;-51
2023/08/09 15:37:35;;;;;;;2.72;1.67;;;25.80;99.90;;;;;;5071896;28;20645;-52
2023/08/09 15:40:01;;;;;;;1.88;1.60;;;25.70;99.90;;;;;;5056241;28;20279;-52
2023/08/09 15:42:28;;;;;;;2.30;1.48;;;25.70;99.90;;;;;;5071650;28;20214;-53
2023/08/09 15:44:53;;;;;;;1.75;1.65;;;25.60;99.90;;;;;;5071494;28;20231;-51
2023/08/09 15:47:19;;;;;;;2.53;1.40;;;25.50;99.90;;;;;;5056316;28;20231;-51
2023/08/09 15:49:45;;;;;;;1.95;1.50;;;25.50;99.90;;;;;;5071652;28;20203;-50
2023/08/09 15:52:11;;;;;;;1.80;1.45;;;25.50;99.90;;;;;;5071402;28;20184;-51
2023/08/09 15:54:36;;;;;;;3.40;1.67;;;25.60;99.90;;;;;;5056128;28;20274;-51
2023/08/09 15:57:02;;;;;;;2.92;1.60;;;25.70;99.90;;;;;;5071186;28;20218;-51
2023/08/09 15:59:28;;;;;;;1.65;1.38;;;25.60;99.90;;;;;;5054884;28;20274;-51
2023/08/09 16:01:54;;;;;;;2.80;2.30;;;25.50;99.90;;;;;;5071103;28;20250;-52
2023/08/09 16:04:20;;;;;;;1.50;1.40;;;25.40;99.90;;;;;;5055671;28;20184;-51
2023/08/09 16:06:45;;;;;;;2.17;1.58;;;25.20;99.90;;;;;;5056212;28;20513;-51
2023/08/09 16:09:14;;;;;;;2.20;1.60;;;25.00;99.90;;;;;;5054488;28;20183;-51
2023/08/09 16:11:42;;;;;;;1.70;1.60;;;24.90;99.90;;;;;;5071082;28;20299;-52
2023/08/09 16:14:09;;;;;;;3.35;1.48;;;24.90;99.90;;;;;;5055541;28;20184;-51
2023/08/09 16:16:38;;;;;;;2.65;1.45;;;24.80;99.90;;;;;;5055521;28;20295;-51
2023/08/09 16:19:05;;;;;;;1.95;1.50;;;24.80;99.90;;;;;;5055482;28;20195;-51
2023/08/09 16:21:31;;;;;;;2.80;1.52;;;24.60;99.90;;;;;;5055715;28;20533;-52
2023/08/09 16:23:57;;;;;;;1.58;1.48;;;24.50;99.90;;;;;;5055376;28;20247;-51
2023/08/09 16:26:24;;;;;;;1.60;1.50;;;24.30;99.90;;;;;;5055514;28;20203;-51
2023/08/09 16:28:50;;;;;;;3.25;1.73;;;24.30;99.90;;;;;;5070570;28;20204;-51
2023/08/09 16:31:15;;;;;;;1.53;1.37;;;24.20;99.90;;;;;;5055138;28;20212;-51
2023/08/09 16:33:41;;;;;;;1.60;1.50;;;24.10;99.90;;;;;;5053948;28;20259;-50
2023/08/09 16:36:07;;;;;;;3.73;1.50;;;24.20;99.90;;;;;;5055159;28;20215;-51
2023/08/09 16:38:33;;;;;;;3.57;1.60;;;24.40;99.90;;;;;;5072394;28;20386;-51
2023/08/09 16:41:02;;;;;;;2.40;1.70;;;24.50;99.90;;;;;;5055712;28;20195;-52
2023/08/09 16:43:35;;;;;;;3.57;1.60;;;24.70;99.90;;;;;;5055204;28;20196;-52
